Etusivu
METAR-TAF:

METAR-TAF

Lentoasemat :

Lawrence Municipal Airport

Lawrence, Kansas, Yhdysvallat

Leveyspiiri: 39-00-30N, Pituuspiiri: 095-12-42W, korkeus merenpinnasta: 253 m

Tämänhetkinen sää

Tämä raportti tehtiin 29 minuuttia sitten, kello 09.52 UTC
Tuuli 4 kn pohjoisesta/koillisesta
Lämpötila 1°C
Kosteus 80%
Ilmanpaine 1020 hPa
Näkyvyys: 12.9 km
Pilvistä 1200 ft:n korkeudessa

METAR: KLWC 280952Z AUTO 03004KT 8SM OVC012 01/M02 A3012 RMK AO2 SLP204 T00061017

Aika: 04:21 (10:21 UTC)


TAF: puuttuu

Säähavainnot ja -ennusteet yli 4000 lentoasemalta (METAR- ja TAF-raportit).

Käytössä olevat sääasemat on merkitty karttaan keltaisilla ja punaisilla pisteillä.

Aseta hiiri pisteen päälle nähdäksesi sääaseman nimen.

Klikkaa sitten nähdäksesi säähavainnot ja -ennusteet.

Kartan vaihtaminen: klikkaa mustalla rastilla varustettuja vihreitä pisteitä, niin voit zoomata sisään; viivalla varustettua vihreää pistettä, niin voit zoomata ulos tai vihreitä nuolia, niin pääset viereisille kartoille.


METAR-TAF: